sensor_id;sensor_type;location;lat;lon;timestamp;temperature;humidity
20815;DHT22;10568;48.176;16.316;2023-02-16T00:01:32;-1.30;99.90
20815;DHT22;10568;48.176;16.316;2023-02-16T00:03:59;-1.20;99.90
20815;DHT22;10568;48.176;16.316;2023-02-16T00:06:27;-1.20;99.90
20815;DHT22;10568;48.176;16.316;2023-02-16T00:08:55;-1.20;99.90
20815;DHT22;10568;48.176;16.316;2023-02-16T00:11:31;-1.20;99.90
20815;DHT22;10568;48.176;16.316;2023-02-16T00:14:17;-1.10;99.90
20815;DHT22;10568;48.176;16.316;2023-02-16T00:16:44;-1.10;99.90
20815;DHT22;10568;48.176;16.316;2023-02-16T00:19:40;-1.10;99.90
20815;DHT22;10568;48.176;16.316;2023-02-16T00:22:07;-1.00;99.90
20815;DHT22;10568;48.176;16.316;2023-02-16T00:24:33;-1.00;99.90
20815;DHT22;10568;48.176;16.316;2023-02-16T00:27:00;-0.90;99.90
20815;DHT22;10568;48.176;16.316;2023-02-16T00:29:27;-0.90;99.90
20815;DHT22;10568;48.176;16.316;2023-02-16T00:31:54;-0.90;99.90
20815;DHT22;10568;48.176;16.316;2023-02-16T00:34:24;-0.80;99.90
20815;DHT22;10568;48.176;16.316;2023-02-16T00:36:50;-0.80;99.90
20815;DHT22;10568;48.176;16.316;2023-02-16T00:39:15;-0.80;99.90
20815;DHT22;10568;48.176;16.316;2023-02-16T00:41:41;-0.70;99.90
20815;DHT22;10568;48.176;16.316;2023-02-16T00:44:18;-0.60;99.90
20815;DHT22;10568;48.176;16.316;2023-02-16T00:46:45;-0.60;99.90
20815;DHT22;10568;48.176;16.316;2023-02-16T00:49:16;-0.60;99.90
20815;DHT22;10568;48.176;16.316;2023-02-16T00:51:43;-0.50;99.90
20815;DHT22;10568;48.176;16.316;2023-02-16T00:54:09;-0.50;99.90
20815;DHT22;10568;48.176;16.316;2023-02-16T00:56:36;-0.40;99.90
20815;DHT22;10568;48.176;16.316;2023-02-16T00:59:06;-0.40;99.90
20815;DHT22;10568;48.176;16.316;2023-02-16T01:01:33;-0.40;99.90
20815;DHT22;10568;48.176;16.316;2023-02-16T01:04:01;-0.40;99.90
20815;DHT22;10568;48.176;16.316;2023-02-16T01:06:27;-0.40;99.90
20815;DHT22;10568;48.176;16.316;2023-02-16T01:09:19;-0.40;99.90
20815;DHT22;10568;48.176;16.316;2023-02-16T01:12:08;-0.40;99.90
20815;DHT22;10568;48.176;16.316;2023-02-16T01:14:35;-0.30;99.90
20815;DHT22;10568;48.176;16.316;2023-02-16T01:17:00;-0.30;99.90
20815;DHT22;10568;48.176;16.316;2023-02-16T01:19:26;-0.30;99.90
20815;DHT22;10568;48.176;16.316;2023-02-16T01:21:52;-0.30;99.90
20815;DHT22;10568;48.176;16.316;2023-02-16T01:24:18;-0.30;99.90
20815;DHT22;10568;48.176;16.316;2023-02-16T01:26:48;-0.30;99.90
20815;DHT22;10568;48.176;16.316;2023-02-16T01:29:20;-0.30;99.90
20815;DHT22;10568;48.176;16.316;2023-02-16T01:31:46;-0.20;99.90
20815;DHT22;10568;48.176;16.316;2023-02-16T01:34:13;-0.30;99.90
20815;DHT22;10568;48.176;16.316;2023-02-16T01:36:42;-0.30;99.90
20815;DHT22;10568;48.176;16.316;2023-02-16T01:39:12;-0.20;99.90
20815;DHT22;10568;48.176;16.316;2023-02-16T01:42:02;-0.20;99.90
20815;DHT22;10568;48.176;16.316;2023-02-16T01:47:50;-0.10;99.90
20815;DHT22;10568;48.176;16.316;2023-02-16T01:50:20;-0.10;99.90
20815;DHT22;10568;48.176;16.316;2023-02-16T01:52:57;-0.10;99.90
20815;DHT22;10568;48.176;16.316;2023-02-16T01:55:30;-0.10;99.90
20815;DHT22;10568;48.176;16.316;2023-02-16T01:58:45;0.00;99.90
20815;DHT22;10568;48.176;16.316;2023-02-16T02:03:32;0.00;99.90
20815;DHT22;10568;48.176;16.316;2023-02-16T02:06:31;0.00;99.90
20815;DHT22;10568;48.176;16.316;2023-02-16T02:09:09;0.10;99.90
20815;DHT22;10568;48.176;16.316;2023-02-16T02:11:45;0.10;99.90
20815;DHT22;10568;48.176;16.316;2023-02-16T02:14:18;0.10;99.90
20815;DHT22;10568;48.176;16.316;2023-02-16T02:17:00;0.20;99.90
20815;DHT22;10568;48.176;16.316;2023-02-16T02:19:26;0.20;99.90
20815;DHT22;10568;48.176;16.316;2023-02-16T02:27:41;0.30;99.90
20815;DHT22;10568;48.176;16.316;2023-02-16T02:33:24;0.30;99.90
20815;DHT22;10568;48.176;16.316;2023-02-16T02:36:50;0.40;99.90
20815;DHT22;10568;48.176;16.316;2023-02-16T02:38:55;0.40;99.90
20815;DHT22;10568;48.176;16.316;2023-02-16T02:41:34;0.40;99.90
20815;DHT22;10568;48.176;16.316;2023-02-16T02:44:22;0.40;99.90
20815;DHT22;10568;48.176;16.316;2023-02-16T02:46:48;0.50;99.90
20815;DHT22;10568;48.176;16.316;2023-02-16T02:49:15;0.50;99.90
20815;DHT22;10568;48.176;16.316;2023-02-16T02:51:40;0.50;99.90
20815;DHT22;10568;48.176;16.316;2023-02-16T03:00:10;0.60;99.90
20815;DHT22;10568;48.176;16.316;2023-02-16T03:02:59;0.60;99.90
20815;DHT22;10568;48.176;16.316;2023-02-16T03:05:28;0.60;99.90
20815;DHT22;10568;48.176;16.316;2023-02-16T03:08:00;0.60;99.90
20815;DHT22;10568;48.176;16.316;2023-02-16T03:10:51;0.60;99.90
20815;DHT22;10568;48.176;16.316;2023-02-16T03:13:46;0.60;99.90
20815;DHT22;10568;48.176;16.316;2023-02-16T03:17:03;0.50;99.90
20815;DHT22;10568;48.176;16.316;2023-02-16T03:19:12;0.60;99.90
20815;DHT22;10568;48.176;16.316;2023-02-16T03:21:58;0.50;99.90
20815;DHT22;10568;48.176;16.316;2023-02-16T03:24:43;0.50;99.90
20815;DHT22;10568;48.176;16.316;2023-02-16T03:27:33;0.50;99.90
20815;DHT22;10568;48.176;16.316;2023-02-16T03:30:18;0.40;99.90
20815;DHT22;10568;48.176;16.316;2023-02-16T03:32:47;0.40;99.90
20815;DHT22;10568;48.176;16.316;2023-02-16T03:35:13;0.50;99.90
20815;DHT22;10568;48.176;16.316;2023-02-16T03:37:40;0.50;99.90
20815;DHT22;10568;48.176;16.316;2023-02-16T03:40:08;0.50;99.90
20815;DHT22;10568;48.176;16.316;2023-02-16T03:43:02;0.50;99.90
20815;DHT22;10568;48.176;16.316;2023-02-16T03:45:30;0.50;99.90
20815;DHT22;10568;48.176;16.316;2023-02-16T03:47:56;0.50;99.90
20815;DHT22;10568;48.176;16.316;2023-02-16T03:50:22;0.50;99.90
20815;DHT22;10568;48.176;16.316;2023-02-16T03:52:48;0.50;99.90
20815;DHT22;10568;48.176;16.316;2023-02-16T03:55:14;0.40;99.90
20815;DHT22;10568;48.176;16.316;2023-02-16T03:57:40;0.40;99.90
20815;DHT22;10568;48.176;16.316;2023-02-16T04:00:06;0.40;99.90
20815;DHT22;10568;48.176;16.316;2023-02-16T04:02:32;0.30;99.90
20815;DHT22;10568;48.176;16.316;2023-02-16T04:04:58;0.40;99.90
20815;DHT22;10568;48.176;16.316;2023-02-16T04:07:23;0.30;99.90
20815;DHT22;10568;48.176;16.316;2023-02-16T04:09:49;0.30;99.90
20815;DHT22;10568;48.176;16.316;2023-02-16T04:12:15;0.30;99.90
20815;DHT22;10568;48.176;16.316;2023-02-16T04:14:59;0.30;99.90
20815;DHT22;10568;48.176;16.316;2023-02-16T04:17:25;0.20;99.90
20815;DHT22;10568;48.176;16.316;2023-02-16T04:19:51;0.20;99.90
20815;DHT22;10568;48.176;16.316;2023-02-16T04:22:16;0.10;99.90
20815;DHT22;10568;48.176;16.316;2023-02-16T04:24:42;0.10;99.90
20815;DHT22;10568;48.176;16.316;2023-02-16T04:27:08;0.00;99.90
20815;DHT22;10568;48.176;16.316;2023-02-16T04:29:34;-0.10;99.90
20815;DHT22;10568;48.176;16.316;2023-02-16T04:32:00;-0.10;99.90
20815;DHT22;10568;48.176;16.316;2023-02-16T04:34:25;0.00;99.90
20815;DHT22;10568;48.176;16.316;2023-02-16T04:36:51;0.00;99.90
20815;DHT22;10568;48.176;16.316;2023-02-16T04:39:17;-0.10;99.90
20815;DHT22;10568;48.176;16.316;2023-02-16T04:41:42;0.00;99.90
20815;DHT22;10568;48.176;16.316;2023-02-16T04:44:08;0.00;99.90
20815;DHT22;10568;48.176;16.316;2023-02-16T04:46:34;0.00;99.90
20815;DHT22;10568;48.176;16.316;2023-02-16T04:49:00;0.00;99.90
20815;DHT22;10568;48.176;16.316;2023-02-16T04:51:25;0.00;99.90
20815;DHT22;10568;48.176;16.316;2023-02-16T04:53:51;0.00;99.90
20815;DHT22;10568;48.176;16.316;2023-02-16T04:56:17;0.00;99.90
20815;DHT22;10568;48.176;16.316;2023-02-16T04:58:43;0.00;99.90
20815;DHT22;10568;48.176;16.316;2023-02-16T05:01:16;-0.10;99.90
20815;DHT22;10568;48.176;16.316;2023-02-16T05:03:42;-0.20;99.90
20815;DHT22;10568;48.176;16.316;2023-02-16T05:06:08;-0.20;99.90
20815;DHT22;10568;48.176;16.316;2023-02-16T05:08:33;-0.30;99.90
20815;DHT22;10568;48.176;16.316;2023-02-16T05:10:59;-0.30;99.90
20815;DHT22;10568;48.176;16.316;2023-02-16T05:13:43;-0.40;99.90
20815;DHT22;10568;48.176;16.316;2023-02-16T05:16:28;-0.40;99.90
20815;DHT22;10568;48.176;16.316;2023-02-16T05:18:53;-0.50;99.90
20815;DHT22;10568;48.176;16.316;2023-02-16T05:21:19;-0.50;99.90
20815;DHT22;10568;48.176;16.316;2023-02-16T05:23:58;-0.50;99.90
20815;DHT22;10568;48.176;16.316;2023-02-16T05:26:25;-0.60;99.90
20815;DHT22;10568;48.176;16.316;2023-02-16T05:28:51;-0.60;99.90
20815;DHT22;10568;48.176;16.316;2023-02-16T05:31:16;-0.60;99.90
20815;DHT22;10568;48.176;16.316;2023-02-16T05:33:42;-0.60;99.90
20815;DHT22;10568;48.176;16.316;2023-02-16T05:36:08;-0.60;99.90
20815;DHT22;10568;48.176;16.316;2023-02-16T05:38:34;-0.50;99.90
20815;DHT22;10568;48.176;16.316;2023-02-16T05:41:00;-0.50;99.90
20815;DHT22;10568;48.176;16.316;2023-02-16T05:43:26;-0.60;99.90
20815;DHT22;10568;48.176;16.316;2023-02-16T05:46:20;-0.50;99.90
20815;DHT22;10568;48.176;16.316;2023-02-16T05:48:46;-0.50;99.90
20815;DHT22;10568;48.176;16.316;2023-02-16T05:51:12;-0.50;99.90
20815;DHT22;10568;48.176;16.316;2023-02-16T05:53:38;-0.50;99.90
20815;DHT22;10568;48.176;16.316;2023-02-16T05:56:04;-0.50;99.90
20815;DHT22;10568;48.176;16.316;2023-02-16T05:58:30;-0.50;99.90
20815;DHT22;10568;48.176;16.316;2023-02-16T06:00:56;-0.50;99.90
20815;DHT22;10568;48.176;16.316;2023-02-16T06:03:23;-0.40;99.90
20815;DHT22;10568;48.176;16.316;2023-02-16T06:05:57;-0.40;99.90
20815;DHT22;10568;48.176;16.316;2023-02-16T06:08:24;-0.40;99.90
20815;DHT22;10568;48.176;16.316;2023-02-16T06:10:51;-0.40;99.90
20815;DHT22;10568;48.176;16.316;2023-02-16T06:13:17;-0.40;99.90
20815;DHT22;10568;48.176;16.316;2023-02-16T06:15:44;-0.40;99.90
20815;DHT22;10568;48.176;16.316;2023-02-16T06:18:10;-0.40;99.90
20815;DHT22;10568;48.176;16.316;2023-02-16T06:20:37;-0.40;99.90
20815;DHT22;10568;48.176;16.316;2023-02-16T06:23:03;-0.30;99.90
20815;DHT22;10568;48.176;16.316;2023-02-16T06:25:30;-0.30;99.90
20815;DHT22;10568;48.176;16.316;2023-02-16T06:27:55;-0.30;99.90
20815;DHT22;10568;48.176;16.316;2023-02-16T06:30:22;-0.30;99.90
20815;DHT22;10568;48.176;16.316;2023-02-16T06:32:48;-0.20;99.90
20815;DHT22;10568;48.176;16.316;2023-02-16T06:35:14;-0.10;99.90
20815;DHT22;10568;48.176;16.316;2023-02-16T06:37:40;-0.10;99.90
20815;DHT22;10568;48.176;16.316;2023-02-16T06:40:06;-0.10;99.90
20815;DHT22;10568;48.176;16.316;2023-02-16T06:42:44;-0.10;99.90
20815;DHT22;10568;48.176;16.316;2023-02-16T06:45:10;-0.10;99.90
20815;DHT22;10568;48.176;16.316;2023-02-16T06:47:37;-0.10;99.90
20815;DHT22;10568;48.176;16.316;2023-02-16T06:50:06;-0.10;99.90
20815;DHT22;10568;48.176;16.316;2023-02-16T06:52:34;-0.10;99.90
20815;DHT22;10568;48.176;16.316;2023-02-16T06:55:00;-0.10;99.90
20815;DHT22;10568;48.176;16.316;2023-02-16T06:57:26;0.00;99.90
20815;DHT22;10568;48.176;16.316;2023-02-16T06:59:52;0.00;99.90
20815;DHT22;10568;48.176;16.316;2023-02-16T07:02:18;-0.10;99.90
20815;DHT22;10568;48.176;16.316;2023-02-16T07:04:43;0.00;99.90
20815;DHT22;10568;48.176;16.316;2023-02-16T07:07:10;0.10;99.90
20815;DHT22;10568;48.176;16.316;2023-02-16T07:09:36;0.10;99.90
20815;DHT22;10568;48.176;16.316;2023-02-16T07:12:02;0.10;99.90
20815;DHT22;10568;48.176;16.316;2023-02-16T07:14:30;0.10;99.90
20815;DHT22;10568;48.176;16.316;2023-02-16T07:16:56;0.20;99.90
20815;DHT22;10568;48.176;16.316;2023-02-16T07:19:24;0.30;99.90
20815;DHT22;10568;48.176;16.316;2023-02-16T07:21:50;0.40;99.90
20815;DHT22;10568;48.176;16.316;2023-02-16T07:24:16;0.50;99.90
20815;DHT22;10568;48.176;16.316;2023-02-16T07:26:42;0.70;99.90
20815;DHT22;10568;48.176;16.316;2023-02-16T07:29:08;0.70;99.90
20815;DHT22;10568;48.176;16.316;2023-02-16T07:31:33;0.90;99.90
20815;DHT22;10568;48.176;16.316;2023-02-16T07:33:59;1.00;99.90
20815;DHT22;10568;48.176;16.316;2023-02-16T07:36:25;1.00;99.90
20815;DHT22;10568;48.176;16.316;2023-02-16T07:38:51;1.10;99.90
20815;DHT22;10568;48.176;16.316;2023-02-16T07:41:16;1.20;99.90
20815;DHT22;10568;48.176;16.316;2023-02-16T07:43:42;1.20;99.90
20815;DHT22;10568;48.176;16.316;2023-02-16T07:46:08;1.30;99.90
20815;DHT22;10568;48.176;16.316;2023-02-16T07:48:34;1.40;99.90
20815;DHT22;10568;48.176;16.316;2023-02-16T07:51:00;1.40;99.90
20815;DHT22;10568;48.176;16.316;2023-02-16T07:53:26;1.40;99.90
20815;DHT22;10568;48.176;16.316;2023-02-16T07:55:52;1.50;99.90
20815;DHT22;10568;48.176;16.316;2023-02-16T07:58:18;1.60;99.90
20815;DHT22;10568;48.176;16.316;2023-02-16T08:01:07;1.60;99.90
20815;DHT22;10568;48.176;16.316;2023-02-16T08:03:33;1.70;99.90
20815;DHT22;10568;48.176;16.316;2023-02-16T08:06:00;1.70;99.90
20815;DHT22;10568;48.176;16.316;2023-02-16T08:08:26;2.00;99.90
20815;DHT22;10568;48.176;16.316;2023-02-16T08:10:52;2.10;99.90
20815;DHT22;10568;48.176;16.316;2023-02-16T08:13:18;2.10;99.90
20815;DHT22;10568;48.176;16.316;2023-02-16T08:15:44;2.30;99.90
20815;DHT22;10568;48.176;16.316;2023-02-16T08:18:10;2.30;99.90
20815;DHT22;10568;48.176;16.316;2023-02-16T08:20:36;2.30;99.90
20815;DHT22;10568;48.176;16.316;2023-02-16T08:23:02;2.20;99.90
20815;DHT22;10568;48.176;16.316;2023-02-16T08:25:32;2.20;99.90
20815;DHT22;10568;48.176;16.316;2023-02-16T08:27:58;2.20;99.90
20815;DHT22;10568;48.176;16.316;2023-02-16T08:30:25;1.90;99.90
20815;DHT22;10568;48.176;16.316;2023-02-16T08:32:51;1.70;99.90
20815;DHT22;10568;48.176;16.316;2023-02-16T08:35:18;1.70;99.90
20815;DHT22;10568;48.176;16.316;2023-02-16T08:37:44;1.80;99.90
20815;DHT22;10568;48.176;16.316;2023-02-16T08:40:10;2.00;99.90
20815;DHT22;10568;48.176;16.316;2023-02-16T08:42:36;1.90;99.90
20815;DHT22;10568;48.176;16.316;2023-02-16T08:45:03;1.90;99.90
20815;DHT22;10568;48.176;16.316;2023-02-16T08:47:30;2.00;99.90
20815;DHT22;10568;48.176;16.316;2023-02-16T08:49:55;2.00;99.90
20815;DHT22;10568;48.176;16.316;2023-02-16T08:52:21;1.90;99.90
20815;DHT22;10568;48.176;16.316;2023-02-16T08:54:47;2.00;99.90
20815;DHT22;10568;48.176;16.316;2023-02-16T08:57:13;2.10;99.90
20815;DHT22;10568;48.176;16.316;2023-02-16T08:59:39;2.10;99.90
20815;DHT22;10568;48.176;16.316;2023-02-16T09:02:05;2.20;99.90
20815;DHT22;10568;48.176;16.316;2023-02-16T09:04:30;2.30;99.90
20815;DHT22;10568;48.176;16.316;2023-02-16T09:06:57;2.40;99.90
20815;DHT22;10568;48.176;16.316;2023-02-16T09:09:23;2.50;99.90
20815;DHT22;10568;48.176;16.316;2023-02-16T09:11:48;2.60;99.90
20815;DHT22;10568;48.176;16.316;2023-02-16T09:14:17;2.60;99.90
20815;DHT22;10568;48.176;16.316;2023-02-16T09:16:43;2.70;99.90
20815;DHT22;10568;48.176;16.316;2023-02-16T09:19:14;2.90;99.90
20815;DHT22;10568;48.176;16.316;2023-02-16T09:21:40;3.10;99.90
20815;DHT22;10568;48.176;16.316;2023-02-16T09:24:06;3.40;99.90
20815;DHT22;10568;48.176;16.316;2023-02-16T09:26:35;3.70;99.90
20815;DHT22;10568;48.176;16.316;2023-02-16T09:29:07;3.90;99.90
20815;DHT22;10568;48.176;16.316;2023-02-16T09:31:34;4.00;99.90
20815;DHT22;10568;48.176;16.316;2023-02-16T09:34:17;4.40;99.90
20815;DHT22;10568;48.176;16.316;2023-02-16T09:36:44;4.60;99.90
20815;DHT22;10568;48.176;16.316;2023-02-16T09:39:11;4.80;99.90
20815;DHT22;10568;48.176;16.316;2023-02-16T09:41:55;5.00;99.90
20815;DHT22;10568;48.176;16.316;2023-02-16T09:46:51;5.30;99.90
20815;DHT22;10568;48.176;16.316;2023-02-16T09:49:23;5.50;99.90
20815;DHT22;10568;48.176;16.316;2023-02-16T09:55:11;5.60;99.90
20815;DHT22;10568;48.176;16.316;2023-02-16T10:08:44;6.10;99.90
20815;DHT22;10568;48.176;16.316;2023-02-16T10:11:25;6.40;99.90
20815;DHT22;10568;48.176;16.316;2023-02-16T10:16:59;6.60;99.90
20815;DHT22;10568;48.176;16.316;2023-02-16T10:19:41;6.90;99.90
20815;DHT22;10568;48.176;16.316;2023-02-16T10:22:13;7.00;99.90
20815;DHT22;10568;48.176;16.316;2023-02-16T10:25:02;7.20;99.90
20815;DHT22;10568;48.176;16.316;2023-02-16T10:27:38;7.30;99.90
20815;DHT22;10568;48.176;16.316;2023-02-16T10:30:21;7.10;99.90
20815;DHT22;10568;48.176;16.316;2023-02-16T10:32:54;7.10;99.90
20815;DHT22;10568;48.176;16.316;2023-02-16T10:37:56;7.00;99.90
20815;DHT22;10568;48.176;16.316;2023-02-16T10:41:00;6.90;99.90
20815;DHT22;10568;48.176;16.316;2023-02-16T10:43:44;6.90;99.90
20815;DHT22;10568;48.176;16.316;2023-02-16T10:46:22;7.10;99.90
20815;DHT22;10568;48.176;16.316;2023-02-16T10:48:51;7.20;99.90
20815;DHT22;10568;48.176;16.316;2023-02-16T10:51:20;7.10;99.90
20815;DHT22;10568;48.176;16.316;2023-02-16T10:53:55;7.20;99.90
20815;DHT22;10568;48.176;16.316;2023-02-16T10:59:10;7.50;99.90
20815;DHT22;10568;48.176;16.316;2023-02-16T11:01:41;7.90;99.90
20815;DHT22;10568;48.176;16.316;2023-02-16T11:04:08;8.20;99.90
20815;DHT22;10568;48.176;16.316;2023-02-16T11:07:06;8.40;99.90
20815;DHT22;10568;48.176;16.316;2023-02-16T11:09:33;8.60;99.90
20815;DHT22;10568;48.176;16.316;2023-02-16T11:12:01;8.50;99.90
20815;DHT22;10568;48.176;16.316;2023-02-16T11:14:29;8.80;99.90
20815;DHT22;10568;48.176;16.316;2023-02-16T11:17:09;8.80;99.90
20815;DHT22;10568;48.176;16.316;2023-02-16T11:19:38;8.60;99.90
20815;DHT22;10568;48.176;16.316;2023-02-16T11:22:06;8.90;99.90
20815;DHT22;10568;48.176;16.316;2023-02-16T11:24:36;9.00;99.90
20815;DHT22;10568;48.176;16.316;2023-02-16T11:27:17;8.90;99.90
20815;DHT22;10568;48.176;16.316;2023-02-16T11:29:43;9.00;99.90
20815;DHT22;10568;48.176;16.316;2023-02-16T11:32:11;9.10;99.90
20815;DHT22;10568;48.176;16.316;2023-02-16T11:34:49;8.90;99.90
20815;DHT22;10568;48.176;16.316;2023-02-16T11:37:27;8.80;99.90
20815;DHT22;10568;48.176;16.316;2023-02-16T11:39:59;8.70;99.90
20815;DHT22;10568;48.176;16.316;2023-02-16T11:42:35;8.70;99.90
20815;DHT22;10568;48.176;16.316;2023-02-16T11:45:06;8.70;99.90
20815;DHT22;10568;48.176;16.316;2023-02-16T11:47:39;8.50;99.90
20815;DHT22;10568;48.176;16.316;2023-02-16T11:52:33;8.50;99.90
20815;DHT22;10568;48.176;16.316;2023-02-16T11:55:00;8.60;99.90
20815;DHT22;10568;48.176;16.316;2023-02-16T11:57:31;8.60;99.90
20815;DHT22;10568;48.176;16.316;2023-02-16T11:59:59;8.30;99.90
20815;DHT22;10568;48.176;16.316;2023-02-16T12:02:58;8.50;99.90
20815;DHT22;10568;48.176;16.316;2023-02-16T12:06:08;8.70;99.90
20815;DHT22;10568;48.176;16.316;2023-02-16T12:09:02;8.70;99.90
20815;DHT22;10568;48.176;16.316;2023-02-16T12:11:50;8.70;99.90
20815;DHT22;10568;48.176;16.316;2023-02-16T12:14:32;8.80;99.90
20815;DHT22;10568;48.176;16.316;2023-02-16T12:17:11;8.80;99.90
20815;DHT22;10568;48.176;16.316;2023-02-16T12:19:46;8.70;99.90
20815;DHT22;10568;48.176;16.316;2023-02-16T12:22:39;8.70;99.90
20815;DHT22;10568;48.176;16.316;2023-02-16T12:30:38;8.40;99.90
20815;DHT22;10568;48.176;16.316;2023-02-16T12:35:44;8.50;99.90
20815;DHT22;10568;48.176;16.316;2023-02-16T12:43:44;8.40;99.90
20815;DHT22;10568;48.176;16.316;2023-02-16T12:46:27;8.20;99.90
20815;DHT22;10568;48.176;16.316;2023-02-16T12:51:47;8.30;99.90
20815;DHT22;10568;48.176;16.316;2023-02-16T12:54:28;8.30;99.90
20815;DHT22;10568;48.176;16.316;2023-02-16T12:57:12;8.30;99.90
20815;DHT22;10568;48.176;16.316;2023-02-16T12:59:50;8.20;99.90
20815;DHT22;10568;48.176;16.316;2023-02-16T13:02:32;8.10;99.90
20815;DHT22;10568;48.176;16.316;2023-02-16T13:05:02;8.10;99.90
20815;DHT22;10568;48.176;16.316;2023-02-16T13:07:44;8.00;99.90
20815;DHT22;10568;48.176;16.316;2023-02-16T13:10:41;8.00;99.90
20815;DHT22;10568;48.176;16.316;2023-02-16T13:13:20;8.00;99.90
20815;DHT22;10568;48.176;16.316;2023-02-16T13:16:41;8.00;99.90
20815;DHT22;10568;48.176;16.316;2023-02-16T13:18:59;7.90;99.90
20815;DHT22;10568;48.176;16.316;2023-02-16T13:21:33;8.00;99.90
20815;DHT22;10568;48.176;16.316;2023-02-16T13:27:01;8.00;99.90
20815;DHT22;10568;48.176;16.316;2023-02-16T13:29:50;7.90;99.90
20815;DHT22;10568;48.176;16.316;2023-02-16T13:41:32;7.80;99.90
20815;DHT22;10568;48.176;16.316;2023-02-16T13:44:08;7.80;99.90
20815;DHT22;10568;48.176;16.316;2023-02-16T13:46:41;7.80;99.90
20815;DHT22;10568;48.176;16.316;2023-02-16T13:49:37;7.80;99.90
20815;DHT22;10568;48.176;16.316;2023-02-16T13:54:52;7.80;99.90
20815;DHT22;10568;48.176;16.316;2023-02-16T14:03:02;7.80;99.90
20815;DHT22;10568;48.176;16.316;2023-02-16T14:05:33;7.80;99.90
20815;DHT22;10568;48.176;16.316;2023-02-16T14:08:21;7.80;99.90
20815;DHT22;10568;48.176;16.316;2023-02-16T14:21:31;7.80;99.90
20815;DHT22;10568;48.176;16.316;2023-02-16T14:24:01;7.90;99.90
20815;DHT22;10568;48.176;16.316;2023-02-16T14:26:29;7.90;99.90
20815;DHT22;10568;48.176;16.316;2023-02-16T14:29:12;7.90;99.90
20815;DHT22;10568;48.176;16.316;2023-02-16T14:31:52;7.90;99.90
20815;DHT22;10568;48.176;16.316;2023-02-16T14:34:27;7.90;99.90
20815;DHT22;10568;48.176;16.316;2023-02-16T14:39:47;8.00;99.90
20815;DHT22;10568;48.176;16.316;2023-02-16T14:42:32;8.00;99.90
20815;DHT22;10568;48.176;16.316;2023-02-16T14:56:21;8.10;99.90
20815;DHT22;10568;48.176;16.316;2023-02-16T14:59:01;8.00;99.90
20815;DHT22;10568;48.176;16.316;2023-02-16T15:01:28;8.00;99.90
20815;DHT22;10568;48.176;16.316;2023-02-16T15:04:02;8.00;99.90
20815;DHT22;10568;48.176;16.316;2023-02-16T15:06:38;8.00;99.90
20815;DHT22;10568;48.176;16.316;2023-02-16T15:12:03;8.00;99.90
20815;DHT22;10568;48.176;16.316;2023-02-16T15:19:56;7.90;99.90
20815;DHT22;10568;48.176;16.316;2023-02-16T15:22:25;7.80;99.90
20815;DHT22;10568;48.176;16.316;2023-02-16T15:27:24;7.70;99.90
20815;DHT22;10568;48.176;16.316;2023-02-16T15:30:05;7.70;99.90
20815;DHT22;10568;48.176;16.316;2023-02-16T15:32:33;7.60;99.90
20815;DHT22;10568;48.176;16.316;2023-02-16T15:35:12;7.60;99.90
20815;DHT22;10568;48.176;16.316;2023-02-16T15:37:46;7.50;99.90
20815;DHT22;10568;48.176;16.316;2023-02-16T15:40:14;7.40;99.90
20815;DHT22;10568;48.176;16.316;2023-02-16T15:42:42;7.40;99.90
20815;DHT22;10568;48.176;16.316;2023-02-16T15:45:33;7.30;99.90
20815;DHT22;10568;48.176;16.316;2023-02-16T15:48:13;7.20;99.90
20815;DHT22;10568;48.176;16.316;2023-02-16T15:50:40;7.10;99.90
20815;DHT22;10568;48.176;16.316;2023-02-16T15:53:11;7.10;99.90
20815;DHT22;10568;48.176;16.316;2023-02-16T15:55:44;7.00;99.90
20815;DHT22;10568;48.176;16.316;2023-02-16T15:58:13;6.80;99.90
20815;DHT22;10568;48.176;16.316;2023-02-16T16:00:41;6.80;99.90
20815;DHT22;10568;48.176;16.316;2023-02-16T16:03:15;6.70;99.90
20815;DHT22;10568;48.176;16.316;2023-02-16T16:05:51;6.60;99.90
20815;DHT22;10568;48.176;16.316;2023-02-16T16:08:21;6.40;99.90
20815;DHT22;10568;48.176;16.316;2023-02-16T16:10:49;6.30;99.90
20815;DHT22;10568;48.176;16.316;2023-02-16T16:13:23;6.30;99.90
20815;DHT22;10568;48.176;16.316;2023-02-16T16:15:50;6.20;99.90
20815;DHT22;10568;48.176;16.316;2023-02-16T16:18:46;6.10;99.90
20815;DHT22;10568;48.176;16.316;2023-02-16T16:23:45;5.80;99.90
20815;DHT22;10568;48.176;16.316;2023-02-16T16:26:18;5.70;99.90
20815;DHT22;10568;48.176;16.316;2023-02-16T16:28:44;5.50;99.90
20815;DHT22;10568;48.176;16.316;2023-02-16T16:31:30;5.40;99.90
20815;DHT22;10568;48.176;16.316;2023-02-16T16:34:06;5.30;99.90
20815;DHT22;10568;48.176;16.316;2023-02-16T16:42:16;5.00;99.90
20815;DHT22;10568;48.176;16.316;2023-02-16T16:44:55;4.90;99.90
20815;DHT22;10568;48.176;16.316;2023-02-16T16:47:35;4.80;99.90
20815;DHT22;10568;48.176;16.316;2023-02-16T16:50:31;4.60;99.90
20815;DHT22;10568;48.176;16.316;2023-02-16T16:52:59;4.60;99.90
20815;DHT22;10568;48.176;16.316;2023-02-16T16:55:31;4.50;99.90
20815;DHT22;10568;48.176;16.316;2023-02-16T16:58:05;4.40;99.90
20815;DHT22;10568;48.176;16.316;2023-02-16T17:00:38;4.30;99.90
20815;DHT22;10568;48.176;16.316;2023-02-16T17:03:11;4.30;99.90
20815;DHT22;10568;48.176;16.316;2023-02-16T17:05:38;4.20;99.90
20815;DHT22;10568;48.176;16.316;2023-02-16T17:08:05;4.20;99.90
20815;DHT22;10568;48.176;16.316;2023-02-16T17:10:31;4.10;99.90
20815;DHT22;10568;48.176;16.316;2023-02-16T17:12:58;4.10;99.90
20815;DHT22;10568;48.176;16.316;2023-02-16T17:15:30;4.00;99.90
20815;DHT22;10568;48.176;16.316;2023-02-16T17:17:58;3.90;99.90
20815;DHT22;10568;48.176;16.316;2023-02-16T17:20:24;3.90;99.90
20815;DHT22;10568;48.176;16.316;2023-02-16T17:22:50;3.80;99.90
20815;DHT22;10568;48.176;16.316;2023-02-16T17:25:19;3.70;99.90
20815;DHT22;10568;48.176;16.316;2023-02-16T17:27:45;3.70;99.90
20815;DHT22;10568;48.176;16.316;2023-02-16T17:30:13;3.60;99.90
20815;DHT22;10568;48.176;16.316;2023-02-16T17:32:40;3.50;99.90
20815;DHT22;10568;48.176;16.316;2023-02-16T17:35:06;3.40;99.90
20815;DHT22;10568;48.176;16.316;2023-02-16T17:37:32;3.30;99.90
20815;DHT22;10568;48.176;16.316;2023-02-16T17:40:00;3.20;99.90
20815;DHT22;10568;48.176;16.316;2023-02-16T17:42:27;3.20;99.90
20815;DHT22;10568;48.176;16.316;2023-02-16T17:44:53;3.10;99.90
20815;DHT22;10568;48.176;16.316;2023-02-16T17:47:21;3.20;99.90
20815;DHT22;10568;48.176;16.316;2023-02-16T17:49:47;3.30;99.90
20815;DHT22;10568;48.176;16.316;2023-02-16T17:52:14;3.50;99.90
20815;DHT22;10568;48.176;16.316;2023-02-16T17:54:41;3.30;99.90
20815;DHT22;10568;48.176;16.316;2023-02-16T17:57:09;3.30;99.90
20815;DHT22;10568;48.176;16.316;2023-02-16T17:59:36;3.20;99.90
20815;DHT22;10568;48.176;16.316;2023-02-16T18:02:07;3.10;99.90
20815;DHT22;10568;48.176;16.316;2023-02-16T18:04:33;3.10;99.90